createdAt,value
2023-03-26T00:00:00.886Z,100268.00
2023-03-26T00:04:05.748Z,100286.22
2023-03-26T00:08:09.867Z,100276.59
2023-03-26T00:12:12.659Z,100273.19
2023-03-26T00:16:18.463Z,100290.25
2023-03-26T00:20:21.258Z,100287.34
2023-03-26T00:24:29.454Z,100287.66
2023-03-26T00:28:32.235Z,100288.63
2023-03-26T00:32:36.274Z,100288.03
2023-03-26T00:36:38.947Z,100287.22
2023-03-26T00:40:44.096Z,100283.69
2023-03-26T00:44:46.900Z,100276.94
2023-03-26T00:48:51.640Z,100276.94
2023-03-26T00:52:55.876Z,100280.03
2023-03-26T00:56:58.779Z,100281.91
2023-03-26T01:01:04.002Z,100282.75
2023-03-26T01:05:43.462Z,100274.59
2023-03-26T01:09:50.393Z,100272.03
2023-03-26T01:13:56.966Z,100269.06
2023-03-26T01:17:59.772Z,100262.84
2023-03-26T01:22:05.066Z,100244.00
2023-03-26T01:26:23.247Z,100251.03
2023-03-26T01:30:34.462Z,100254.91
2023-03-26T01:34:51.673Z,100249.28
2023-03-26T01:39:00.919Z,100239.59
2023-03-26T01:43:13.858Z,100238.19
2023-03-26T01:47:18.737Z,100231.34
2023-03-26T01:51:29.400Z,100231.13
2023-03-26T01:55:43.710Z,100225.78
2023-03-26T02:00:14.786Z,100223.09
2023-03-26T02:04:25.718Z,100214.25
2023-03-26T02:08:35.839Z,100214.59
2023-03-26T02:12:39.118Z,100210.00
2023-03-26T02:16:46.682Z,100200.81
2023-03-26T02:20:49.550Z,100195.41
2023-03-26T02:24:52.372Z,100188.09
2023-03-26T02:28:55.328Z,100186.66
2023-03-26T02:33:00.004Z,100180.66
2023-03-26T02:37:11.286Z,100186.09
2023-03-26T02:41:17.116Z,100170.06
2023-03-26T02:45:30.112Z,100163.84
2023-03-26T02:49:53.073Z,100163.00
2023-03-26T02:54:06.991Z,100166.03
2023-03-26T02:58:38.164Z,100155.94
2023-03-26T03:02:41.272Z,100142.41
2023-03-26T03:07:05.731Z,100138.63
2023-03-26T03:11:10.933Z,100143.22
2023-03-26T03:15:17.410Z,100132.72
2023-03-26T03:19:20.213Z,100133.31
2023-03-26T03:23:25.389Z,100142.47
2023-03-26T03:27:33.900Z,100132.47
2023-03-26T03:31:44.391Z,100136.84
2023-03-26T03:36:00.655Z,100128.47
2023-03-26T03:40:07.651Z,100126.06
2023-03-26T03:44:11.484Z,100109.09
2023-03-26T03:48:14.171Z,100122.41
2023-03-26T03:52:20.592Z,100118.28
2023-03-26T03:56:26.147Z,100108.28
2023-03-26T04:00:48.600Z,100111.34
2023-03-26T04:05:19.961Z,100109.44
2023-03-26T04:09:25.908Z,100109.75
2023-03-26T04:13:33.630Z,100103.63
2023-03-26T04:17:55.886Z,100099.59
2023-03-26T04:22:02.399Z,100099.03
2023-03-26T04:26:16.191Z,100094.66
2023-03-26T04:30:44.938Z,100096.06
2023-03-26T04:35:14.128Z,100089.25
2023-03-26T04:39:19.761Z,100086.28
2023-03-26T04:43:47.309Z,100084.38
2023-03-26T04:48:14.277Z,100068.94
2023-03-26T04:52:17.139Z,100063.88
2023-03-26T04:56:44.070Z,100050.53
2023-03-26T05:01:10.135Z,100060.81
2023-03-26T05:05:18.672Z,100047.25
2023-03-26T05:09:22.423Z,100047.25
2023-03-26T05:13:51.374Z,100046.78
2023-03-26T05:17:55.552Z,100044.28
2023-03-26T05:22:14.686Z,100038.06
2023-03-26T05:26:38.118Z,100025.56
2023-03-26T05:30:41.126Z,100028.03
2023-03-26T05:34:43.848Z,100016.38
2023-03-26T05:38:49.616Z,100015.81
2023-03-26T05:43:31.759Z,100020.66
2023-03-26T05:47:47.846Z,100017.13
2023-03-26T05:51:50.764Z,100013.34
2023-03-26T05:56:13.582Z,100012.28
2023-03-26T06:00:38.308Z,100012.00
2023-03-26T06:04:42.595Z,100017.94
2023-03-26T06:09:08.698Z,100004.69
2023-03-26T06:13:13.636Z,99995.28
2023-03-26T06:17:17.004Z,99997.72
2023-03-26T06:21:45.871Z,99989.25
2023-03-26T06:25:54.780Z,99983.34
2023-03-26T06:30:15.442Z,99973.16
2023-03-26T06:34:50.757Z,99970.50
2023-03-26T06:38:53.542Z,99971.41
2023-03-26T06:43:07.017Z,99964.44
2023-03-26T06:47:31.215Z,99964.97
2023-03-26T06:51:33.888Z,99958.75
2023-03-26T06:56:03.164Z,99956.19
2023-03-26T07:00:24.767Z,99955.00
2023-03-26T07:04:47.637Z,99956.47
2023-03-26T07:09:30.198Z,99957.09
2023-03-26T07:13:39.998Z,99954.75
2023-03-26T07:18:01.628Z,99946.41
2023-03-26T07:22:16.314Z,99940.22
2023-03-26T07:26:49.032Z,99945.47
2023-03-26T07:31:04.069Z,99940.59
2023-03-26T07:35:20.962Z,99940.28
2023-03-26T07:39:53.317Z,99945.22
2023-03-26T07:44:21.327Z,99934.28
2023-03-26T07:48:44.862Z,99928.97
2023-03-26T07:52:57.153Z,99924.97
2023-03-26T07:57:18.532Z,99927.34
2023-03-26T08:01:47.205Z,99925.84
2023-03-26T08:06:04.163Z,99923.56
2023-03-26T08:10:18.648Z,99927.09
2023-03-26T08:14:45.441Z,99921.31
2023-03-26T08:18:57.322Z,99917.50
2023-03-26T08:23:06.609Z,99916.44
2023-03-26T08:27:15.948Z,99918.84
2023-03-26T08:31:27.749Z,99919.06
2023-03-26T08:35:30.877Z,99920.16
2023-03-26T08:39:33.702Z,99919.03
2023-03-26T08:43:59.528Z,99920.94
2023-03-26T08:48:21.683Z,99913.91
2023-03-26T08:52:37.887Z,99901.50
2023-03-26T08:56:52.519Z,99903.38
2023-03-26T09:01:21.451Z,99916.69
2023-03-26T09:06:25.325Z,99907.03
2023-03-26T09:10:47.167Z,99905.13
2023-03-26T09:15:27.151Z,99911.72
2023-03-26T09:20:02.351Z,99909.47
2023-03-26T09:24:47.287Z,99910.31
2023-03-26T09:29:21.805Z,99908.03
2023-03-26T09:33:59.342Z,99908.03
2023-03-26T09:38:12.348Z,99916.44
2023-03-26T09:42:24.235Z,99908.22
2023-03-26T09:46:41.146Z,99902.88
2023-03-26T09:51:07.010Z,99903.25
2023-03-26T09:55:28.460Z,99903.13
2023-03-26T09:59:57.274Z,99902.13
2023-03-26T10:04:38.513Z,99903.63
2023-03-26T10:08:55.455Z,99907.84
2023-03-26T10:13:14.137Z,99912.56
2023-03-26T10:17:34.554Z,99908.84
2023-03-26T10:21:46.392Z,99900.38
2023-03-26T10:26:04.382Z,99900.63
2023-03-26T10:30:37.768Z,99901.22
2023-03-26T10:34:51.829Z,99900.69
2023-03-26T10:39:04.660Z,99901.84
2023-03-26T10:43:21.982Z,99894.44
2023-03-26T10:48:00.374Z,99891.16
2023-03-26T10:52:05.687Z,99899.25
2023-03-26T10:56:22.782Z,99903.34
2023-03-26T11:00:29.208Z,99896.34
2023-03-26T11:04:44.958Z,99893.63
2023-03-26T11:08:53.979Z,99907.28
2023-03-26T11:13:05.500Z,99902.47
2023-03-26T11:17:40.411Z,99897.66
2023-03-26T11:21:47.441Z,99897.44
2023-03-26T11:26:06.936Z,99898.56
2023-03-26T11:30:28.723Z,99901.13
2023-03-26T11:34:37.109Z,99896.00
2023-03-26T11:38:43.638Z,99904.44
2023-03-26T11:42:54.386Z,99909.06
2023-03-26T11:47:04.434Z,99901.97
2023-03-26T11:51:10.357Z,99913.31
2023-03-26T11:55:13.798Z,99908.06
2023-03-26T11:59:21.688Z,99904.47
2023-03-26T12:03:26.016Z,99905.56
2023-03-26T12:07:32.440Z,99912.91
2023-03-26T12:11:36.057Z,99900.13
2023-03-26T12:15:44.575Z,99906.38
2023-03-26T12:19:48.546Z,99903.94
2023-03-26T12:24:00.926Z,99910.47
2023-03-26T12:28:05.884Z,99908.94
2023-03-26T12:32:15.190Z,99917.69
2023-03-26T12:36:23.330Z,99911.44
2023-03-26T12:40:32.527Z,99919.81
2023-03-26T12:44:49.934Z,99914.59
2023-03-26T12:49:05.527Z,99918.06
2023-03-26T12:53:29.088Z,99925.88
2023-03-26T12:57:39.228Z,99925.28
2023-03-26T13:01:54.828Z,99930.69
2023-03-26T13:06:08.473Z,99924.41
2023-03-26T13:10:38.850Z,99929.34
2023-03-26T13:14:57.315Z,99927.63
2023-03-26T13:19:04.108Z,99934.44
2023-03-26T13:23:18.248Z,99932.31
2023-03-26T13:27:36.633Z,99942.28
2023-03-26T13:31:49.568Z,99936.09
2023-03-26T13:36:14.298Z,99938.09
2023-03-26T13:40:28.075Z,99941.22
2023-03-26T13:44:39.145Z,99935.91
2023-03-26T13:48:50.746Z,99947.19
2023-03-26T13:52:57.239Z,99951.78
2023-03-26T13:57:08.382Z,99944.44
2023-03-26T14:01:17.460Z,99954.16
2023-03-26T14:05:25.753Z,99958.28
2023-03-26T14:09:32.687Z,99959.22
2023-03-26T14:13:42.695Z,99960.13
2023-03-26T14:17:52.508Z,99966.69
2023-03-26T14:22:03.469Z,99967.81
2023-03-26T14:26:20.190Z,99977.81
2023-03-26T14:30:59.352Z,99979.75
2023-03-26T14:35:24.475Z,99985.75
2023-03-26T14:39:48.082Z,99991.72
2023-03-26T14:44:14.585Z,99992.56
2023-03-26T14:48:50.496Z,100000.81
2023-03-26T14:53:01.062Z,99998.50
2023-03-26T14:57:46.399Z,100007.38
2023-03-26T15:02:38.996Z,100013.38
2023-03-26T15:07:31.308Z,100013.63
2023-03-26T15:11:46.691Z,100021.03
2023-03-26T15:16:13.269Z,100035.06
2023-03-26T15:20:44.171Z,100038.69
2023-03-26T15:25:37.406Z,100040.66
2023-03-26T15:30:05.735Z,100047.56
2023-03-26T15:34:30.414Z,100055.19
2023-03-26T15:39:01.188Z,100052.09
2023-03-26T15:43:11.448Z,100060.22
2023-03-26T15:47:47.439Z,100067.78
2023-03-26T15:51:56.442Z,100069.88
2023-03-26T15:56:16.038Z,100077.09
2023-03-26T16:00:23.248Z,100075.94
2023-03-26T16:04:50.641Z,100089.44
2023-03-26T16:09:07.792Z,100093.22
2023-03-26T16:13:27.659Z,100101.25
2023-03-26T16:18:22.622Z,100111.75
2023-03-26T16:22:56.013Z,100123.50
2023-03-26T16:27:32.159Z,100130.22
2023-03-26T16:31:37.846Z,100131.81
2023-03-26T16:36:01.893Z,100141.50
2023-03-26T16:40:36.920Z,100151.59
2023-03-26T16:44:47.649Z,100156.56
2023-03-26T16:48:58.146Z,100170.47
2023-03-26T16:53:13.346Z,100177.22
2023-03-26T16:57:27.976Z,100187.81
2023-03-26T17:01:41.452Z,100197.09
2023-03-26T17:06:02.175Z,100207.56
2023-03-26T17:10:16.424Z,100209.47
2023-03-26T17:14:31.878Z,100212.66
2023-03-26T17:18:46.807Z,100233.38
2023-03-26T17:22:58.964Z,100236.41
2023-03-26T17:27:09.634Z,100245.38
2023-03-26T17:31:24.171Z,100254.88
2023-03-26T17:35:42.734Z,100265.69
2023-03-26T17:40:36.415Z,100273.69
2023-03-26T17:44:44.622Z,100295.03
2023-03-26T17:48:54.814Z,100301.97
2023-03-26T17:52:59.257Z,100307.22
2023-03-26T17:57:05.054Z,100320.84
2023-03-26T18:01:21.647Z,100323.25
2023-03-26T18:05:30.017Z,100336.25
2023-03-26T18:09:48.112Z,100346.00
2023-03-26T18:14:26.076Z,100351.72
2023-03-26T18:18:33.121Z,100377.94
2023-03-26T18:22:37.418Z,100388.22
2023-03-26T18:26:42.657Z,100393.38
2023-03-26T18:30:49.653Z,100404.94
2023-03-26T18:34:57.157Z,100414.13
2023-03-26T18:39:01.599Z,100414.03
2023-03-26T18:43:04.318Z,100426.91
2023-03-26T18:47:09.647Z,100437.44
2023-03-26T18:51:13.130Z,100448.28
2023-03-26T18:55:17.310Z,100463.22
2023-03-26T18:59:27.998Z,100462.50
2023-03-26T19:03:35.456Z,100468.56
2023-03-26T19:07:39.147Z,100482.25
2023-03-26T19:11:45.327Z,100480.44
2023-03-26T19:15:50.314Z,100486.84
2023-03-26T19:19:53.242Z,100491.03
2023-03-26T19:23:56.582Z,100495.00
2023-03-26T19:28:00.825Z,100497.94
2023-03-26T19:32:06.305Z,100513.94
2023-03-26T19:36:18.882Z,100520.19
2023-03-26T19:40:29.596Z,100526.59
2023-03-26T19:44:34.186Z,100531.84
2023-03-26T19:48:46.810Z,100540.53
2023-03-26T19:53:15.415Z,100545.13
2023-03-26T19:57:19.810Z,100552.38
2023-03-26T20:01:26.689Z,100563.97
2023-03-26T20:05:34.028Z,100566.25
2023-03-26T20:09:36.721Z,100569.16
2023-03-26T20:13:39.428Z,100577.47
2023-03-26T20:17:44.677Z,100592.38
2023-03-26T20:21:47.440Z,100605.22
2023-03-26T20:25:54.405Z,100612.25
2023-03-26T20:29:57.595Z,100611.66
2023-03-26T20:34:01.766Z,100619.28
2023-03-26T20:38:05.325Z,100618.25
2023-03-26T20:42:11.999Z,100634.00
2023-03-26T20:46:18.658Z,100634.41
2023-03-26T20:50:26.638Z,100636.06
2023-03-26T20:54:30.692Z,100648.91
2023-03-26T20:58:33.437Z,100662.78
2023-03-26T21:02:37.027Z,100656.78
2023-03-26T21:06:41.179Z,100664.66
2023-03-26T21:10:44.732Z,100670.47
2023-03-26T21:14:47.878Z,100675.84
2023-03-26T21:18:51.698Z,100674.16
2023-03-26T21:23:04.963Z,100687.22
2023-03-26T21:27:15.094Z,100690.31
2023-03-26T21:31:20.734Z,100703.78
2023-03-26T21:35:24.276Z,100711.84
2023-03-26T21:39:29.942Z,100723.44
2023-03-26T21:43:32.835Z,100716.81
2023-03-26T21:47:36.230Z,100721.75
2023-03-26T21:51:39.864Z,100728.38
2023-03-26T21:55:58.488Z,100734.34
2023-03-26T22:00:14.637Z,100743.59
2023-03-26T22:04:24.757Z,100760.31
2023-03-26T22:08:31.472Z,100757.19
2023-03-26T22:12:36.241Z,100770.22
2023-03-26T22:16:38.911Z,100775.75
2023-03-26T22:20:42.632Z,100764.16
2023-03-26T22:24:45.385Z,100780.88
2023-03-26T22:28:50.156Z,100787.03
2023-03-26T22:32:53.308Z,100796.53
2023-03-26T22:36:56.180Z,100802.94
2023-03-26T22:40:59.103Z,100805.63
2023-03-26T22:45:04.073Z,100815.13
2023-03-26T22:49:07.376Z,100821.66
2023-03-26T22:53:10.337Z,100835.69
2023-03-26T22:57:13.467Z,100850.34
2023-03-26T23:01:20.294Z,100847.66
2023-03-26T23:05:23.468Z,100866.28
2023-03-26T23:09:26.346Z,100855.53
2023-03-26T23:13:29.070Z,100867.69
2023-03-26T23:17:35.257Z,100875.53
2023-03-26T23:21:38.030Z,100881.31
2023-03-26T23:25:40.705Z,100888.56
2023-03-26T23:29:45.890Z,100880.28
2023-03-26T23:33:50.442Z,100888.47
2023-03-26T23:37:53.968Z,100901.53
2023-03-26T23:41:56.672Z,100912.69
2023-03-26T23:45:59.851Z,100921.13
2023-03-26T23:50:06.818Z,100915.28
2023-03-26T23:54:11.609Z,100933.47
2023-03-26T23:58:14.655Z,100936.25
